Terminal Aerodrome Forecast
Issued by NWS Tulsa, OK

Home | Current Version | Previous Version | Text Only | Print | Product List | Glossary On
Versions: 1 2 3 4 5 6 7 8 9 10 11 12 13 14
000
FTUS44 KTSA 141300 AAA
TAFTUL
TAF AMD
KTUL 141316Z 1413/1512 33004KT P6SM VCSH SCT050 BKN250
      TEMPO 1413/1415 5SM -SHRA BR BKN050
     FM141500 VRB06KT P6SM BKN150
     FM150000 01008KT P6SM BKN250=

USA.gov is the U.S. government's official web portal to all federal, state and local government web resources and services.